Rogersville, Alabama
Current Conditions -  °F | °C
As of 5:53 PM on Wednesday 28 Jan 2015 (Local Time) from KMSL Reporting Station
Clear Clear  
Wind Chill: 44°   Ceiling: Unl
Heat Index: 44°   Visibility: 10mi
Dew Point: 32°   Wind: 3mph
Humidity: 63%   Direction: 100°E
Pressure: 30.22"   Gusts: NA
Location:  34.83°N, 87.29°W
Report Text: KMSL 282353Z AUTO 10003KT 10SM CLR 07/00 A3022 RMK AO2 SLP234 T00670000 10122 20067 55008
Loading
Personal Weather Stations






























Interactive Weather Map New forecast layout! Learn more

10-Day Weather Forecast

Advertisements
Track Severe Weather on mobile